Time;durP1;ratioP1;P1;durP2;ratioP2;P2;SDS_P1;SDS_P2;PMS_P1;PMS_P2;Temp;Humidity;BMP_temperature;BMP_pressure;BME280_temperature;BME280_humidity;BME280_pressure;Samples;Min_cycle;Max_cycle;Signal;HPM_P1;HPM_P2
2022/08/06 00:00:19;;;;;;;2.80;0.90;;;15.50;92.40;;;;;;5105721;28;20459;-44
2022/08/06 00:02:44;;;;;;;3.22;1.00;;;15.60;92.40;;;;;;5104646;28;20051;-43
2022/08/06 00:05:10;;;;;;;2.67;0.85;;;15.60;92.50;;;;;;5105960;28;20016;-43
2022/08/06 00:07:36;;;;;;;1.67;0.70;;;15.60;92.50;;;;;;5105364;28;20039;-43
2022/08/06 00:10:02;;;;;;;3.78;0.80;;;15.70;92.60;;;;;;5104564;28;20027;-43
2022/08/06 00:12:32;;;;;;;1.42;0.65;;;15.70;92.60;;;;;;5105701;28;20019;-42
2022/08/06 00:14:58;;;;;;;2.60;0.73;;;15.60;92.60;;;;;;5105117;28;20108;-43
2022/08/06 00:17:25;;;;;;;3.22;0.98;;;15.60;92.60;;;;;;5105438;28;20071;-44
2022/08/06 00:19:50;;;;;;;1.92;0.70;;;15.60;92.80;;;;;;5105591;28;20553;-42
2022/08/06 00:22:16;;;;;;;4.07;0.95;;;15.60;92.80;;;;;;5105426;28;20110;-44
2022/08/06 00:24:41;;;;;;;4.78;1.00;;;15.50;93.10;;;;;;5105010;28;20011;-43
2022/08/06 00:27:07;;;;;;;4.70;1.05;;;15.50;92.90;;;;;;5105403;28;20052;-42
2022/08/06 00:29:33;;;;;;;3.03;0.80;;;15.50;93.00;;;;;;5106813;28;20016;-43
2022/08/06 00:31:58;;;;;;;3.13;0.80;;;15.50;93.00;;;;;;5109166;28;20138;-43
2022/08/06 00:34:24;;;;;;;1.50;0.70;;;15.40;93.00;;;;;;5108885;28;20122;-43
2022/08/06 00:36:49;;;;;;;2.25;0.75;;;15.40;93.10;;;;;;5109347;28;20070;-44
2022/08/06 00:39:15;;;;;;;3.50;0.90;;;15.30;93.20;;;;;;5109087;28;20104;-44
2022/08/06 00:41:40;;;;;;;2.65;1.00;;;15.30;93.40;;;;;;5108775;28;20084;-43
2022/08/06 00:44:06;;;;;;;2.13;0.90;;;15.20;93.60;;;;;;5109440;28;20024;-43
2022/08/06 00:46:31;;;;;;;3.38;0.90;;;15.20;93.90;;;;;;5107981;28;20024;-42
2022/08/06 00:48:57;;;;;;;2.90;1.08;;;15.20;94.00;;;;;;5109292;28;20495;-42
2022/08/06 00:51:23;;;;;;;3.17;0.90;;;15.20;94.30;;;;;;5108970;28;20028;-43
2022/08/06 00:53:50;;;;;;;3.78;0.88;;;15.20;94.30;;;;;;5108117;28;20200;-43
2022/08/06 00:56:15;;;;;;;4.25;0.80;;;15.10;94.40;;;;;;5109158;28;20050;-43
2022/08/06 00:58:41;;;;;;;3.92;1.10;;;15.10;94.50;;;;;;5108335;28;20183;-44
2022/08/06 01:01:10;;;;;;;3.08;0.90;;;15.10;94.50;;;;;;5109035;28;20020;-43
2022/08/06 01:03:36;;;;;;;2.75;1.10;;;15.10;94.60;;;;;;5109231;28;20020;-44
2022/08/06 01:06:02;;;;;;;3.72;1.00;;;15.10;94.60;;;;;;5108133;28;20023;-43
2022/08/06 01:08:28;;;;;;;2.40;1.00;;;15.00;94.80;;;;;;5109097;28;20023;-44
2022/08/06 01:10:53;;;;;;;4.45;1.15;;;15.00;94.90;;;;;;5108678;28;20076;-43
2022/08/06 01:13:19;;;;;;;4.15;0.82;;;15.00;95.00;;;;;;5108530;28;20100;-44
2022/08/06 01:15:51;;;;;;;5.53;1.33;;;14.90;95.30;;;;;;5108909;28;20123;-43
2022/08/06 01:18:25;;;;;;;6.47;1.10;;;14.90;95.30;;;;;;5109391;28;20027;-43
2022/08/06 01:21:11;;;;;;;4.22;1.30;;;14.90;95.40;;;;;;5108117;28;20078;-43
2022/08/06 01:24:11;;;;;;;4.45;1.27;;;14.90;95.60;;;;;;5109121;28;20024;-43
2022/08/06 01:26:49;;;;;;;3.08;1.15;;;14.80;95.80;;;;;;5106612;28;20387;-44
2022/08/06 01:29:29;;;;;;;4.03;1.23;;;14.80;96.00;;;;;;5108713;28;20032;-43
2022/08/06 01:32:08;;;;;;;3.22;1.20;;;14.80;96.20;;;;;;5108121;28;20024;-44
2022/08/06 01:34:40;;;;;;;5.55;1.10;;;14.70;96.20;;;;;;5107803;28;20023;-44
2022/08/06 01:37:35;;;;;;;3.95;0.80;;;14.70;96.00;;;;;;5108250;28;20558;-43
2022/08/06 01:40:05;;;;;;;4.05;1.10;;;14.70;96.10;;;;;;5108074;28;20065;-44
2022/08/06 01:42:32;;;;;;;3.50;1.00;;;14.70;96.30;;;;;;5107633;28;20110;-44
2022/08/06 01:45:03;;;;;;;4.68;1.40;;;14.70;96.30;;;;;;5108629;28;20027;-44
2022/08/06 01:47:31;;;;;;;2.13;1.05;;;14.70;96.30;;;;;;5107971;28;20024;-43
2022/08/06 01:50:02;;;;;;;4.10;1.10;;;14.60;96.40;;;;;;5107927;28;20023;-43
2022/08/06 01:52:48;;;;;;;12.02;3.15;;;14.70;96.50;;;;;;5108261;28;20066;-43
2022/08/06 01:55:18;;;;;;;4.75;1.20;;;14.60;96.60;;;;;;5107878;28;20387;-43
2022/08/06 01:57:49;;;;;;;2.08;0.90;;;14.60;96.70;;;;;;5107190;28;20043;-47
2022/08/06 02:00:15;;;;;;;4.53;1.23;;;14.60;96.60;;;;;;5107673;28;20015;-43
2022/08/06 02:02:43;;;;;;;4.50;1.25;;;14.60;96.70;;;;;;5107213;28;20032;-43
2022/08/06 02:05:09;;;;;;;3.75;1.00;;;14.60;96.70;;;;;;5107977;28;20106;-43
2022/08/06 02:07:39;;;;;;;1.45;0.90;;;14.60;96.90;;;;;;5107132;28;20019;-43
2022/08/06 02:10:07;;;;;;;3.33;1.00;;;14.60;96.90;;;;;;5107038;28;20024;-43
2022/08/06 02:12:35;;;;;;;5.03;1.17;;;14.50;97.00;;;;;;5107182;28;20043;-43
2022/08/06 02:15:06;;;;;;;1.83;1.02;;;14.50;97.00;;;;;;5106783;28;20020;-43
2022/08/06 02:17:37;;;;;;;3.28;1.05;;;14.50;97.10;;;;;;5106238;28;20046;-44
2022/08/06 02:20:04;;;;;;;2.10;1.10;;;14.50;97.10;;;;;;5106624;28;20093;-43
2022/08/06 02:22:33;;;;;;;7.13;1.45;;;14.50;97.10;;;;;;5106812;28;20016;-44
2022/08/06 02:25:08;;;;;;;3.55;1.35;;;14.50;97.50;;;;;;5106727;28;20039;-44
2022/08/06 02:27:35;;;;;;;4.53;1.17;;;14.50;97.40;;;;;;5106756;28;20044;-43
2022/08/06 02:30:03;;;;;;;3.08;1.00;;;14.40;97.40;;;;;;5106013;28;20030;-43
2022/08/06 02:32:28;;;;;;;3.00;1.50;;;14.50;97.50;;;;;;5106883;28;20540;-43
2022/08/06 02:34:55;;;;;;;2.92;1.10;;;14.40;97.50;;;;;;5106571;28;20072;-43
2022/08/06 02:37:26;;;;;;;4.25;1.27;;;14.40;97.40;;;;;;5106873;28;20039;-44
2022/08/06 02:40:03;;;;;;;3.38;1.13;;;14.40;97.70;;;;;;5106707;28;20037;-43
2022/08/06 02:42:52;;;;;;;2.92;1.08;;;14.40;97.40;;;;;;5106907;28;20082;-43
2022/08/06 02:45:46;;;;;;;2.50;0.88;;;14.40;97.40;;;;;;5106682;28;20031;-43
2022/08/06 02:48:22;;;;;;;2.95;1.00;;;14.40;97.40;;;;;;5081938;28;20050;-44
2022/08/06 02:50:49;;;;;;;2.63;1.13;;;14.40;97.40;;;;;;5104596;28;20038;-43
2022/08/06 02:53:24;;;;;;;2.45;1.20;;;14.40;97.50;;;;;;5106297;28;20042;-43
2022/08/06 02:55:55;;;;;;;3.40;1.23;;;14.30;97.60;;;;;;5106657;28;20019;-43
2022/08/06 02:58:35;;;;;;;3.17;1.20;;;14.20;97.70;;;;;;5106462;28;20110;-43
2022/08/06 03:01:06;;;;;;;4.93;1.20;;;14.20;97.80;;;;;;5103830;28;20539;-43
2022/08/06 03:03:33;;;;;;;2.08;1.00;;;14.10;97.80;;;;;;5106829;28;20019;-44
2022/08/06 03:06:02;;;;;;;4.28;1.25;;;14.10;97.90;;;;;;5105988;28;20027;-43
2022/08/06 03:08:30;;;;;;;2.10;1.25;;;14.00;97.90;;;;;;5106428;28;20055;-43
2022/08/06 03:10:58;;;;;;;3.17;1.00;;;14.10;97.90;;;;;;5105940;28;20118;-43
2022/08/06 03:13:24;;;;;;;3.80;0.90;;;14.10;97.90;;;;;;5106612;28;20062;-43
2022/08/06 03:15:51;;;;;;;2.65;0.85;;;14.10;97.90;;;;;;5106196;28;20225;-43
2022/08/06 03:18:18;;;;;;;2.85;1.10;;;14.10;97.90;;;;;;5106175;28;20035;-44
2022/08/06 03:20:45;;;;;;;3.20;0.98;;;14.00;97.90;;;;;;5105911;28;20035;-43
2022/08/06 03:23:12;;;;;;;3.42;1.10;;;14.00;97.90;;;;;;5106403;28;20044;-44
2022/08/06 03:25:39;;;;;;;2.40;1.10;;;14.10;98.00;;;;;;5105452;28;20102;-43
2022/08/06 03:28:06;;;;;;;1.95;1.00;;;14.00;98.00;;;;;;5105016;28;20083;-43
2022/08/06 03:30:32;;;;;;;2.35;1.08;;;14.10;98.00;;;;;;5106038;28;20050;-44
2022/08/06 03:33:03;;;;;;;2.72;1.10;;;14.00;98.00;;;;;;5105784;28;20065;-43
2022/08/06 03:35:28;;;;;;;3.38;1.00;;;14.00;98.10;;;;;;5104928;28;20567;-43
2022/08/06 03:37:56;;;;;;;4.28;1.40;;;14.10;98.10;;;;;;5105548;28;20059;-43
2022/08/06 03:40:23;;;;;;;3.50;1.20;;;14.10;98.20;;;;;;5105302;28;20152;-43
2022/08/06 03:42:49;;;;;;;4.25;1.17;;;14.10;98.20;;;;;;5105652;28;20387;-43
2022/08/06 03:45:14;;;;;;;2.17;1.20;;;14.10;98.20;;;;;;5106441;28;20483;-43
2022/08/06 03:47:44;;;;;;;3.10;1.20;;;14.10;98.30;;;;;;5104537;28;20897;-43
2022/08/06 03:50:16;;;;;;;3.78;1.42;;;14.10;98.40;;;;;;5106116;28;20024;-43
2022/08/06 03:53:08;;;;;;;3.13;1.17;;;14.10;98.40;;;;;;5105177;28;20100;-42
2022/08/06 03:55:36;;;;;;;4.60;1.20;;;14.10;98.50;;;;;;5093648;28;20051;-43
2022/08/06 03:58:05;;;;;;;4.03;1.30;;;14.20;98.50;;;;;;5105311;28;20028;-44
2022/08/06 04:00:36;;;;;;;2.33;1.10;;;14.10;98.50;;;;;;5105085;28;20371;-43
2022/08/06 04:03:04;;;;;;;3.83;1.20;;;14.10;98.50;;;;;;5105180;28;20036;-44
2022/08/06 04:05:32;;;;;;;2.53;1.20;;;14.10;98.50;;;;;;5109120;28;20418;-43
2022/08/06 04:08:00;;;;;;;2.80;1.33;;;14.10;98.60;;;;;;5109087;28;20649;-44
2022/08/06 04:10:30;;;;;;;2.95;1.20;;;14.00;98.60;;;;;;5109266;28;20023;-44
2022/08/06 04:12:56;;;;;;;2.75;1.27;;;14.00;98.60;;;;;;5109342;28;20027;-44
2022/08/06 04:15:23;;;;;;;2.15;1.27;;;14.00;98.60;;;;;;5109976;28;20032;-43
2022/08/06 04:17:51;;;;;;;4.45;1.00;;;14.00;98.70;;;;;;5108792;28;20093;-43
2022/08/06 04:20:20;;;;;;;2.22;1.20;;;14.10;98.70;;;;;;5110138;28;20039;-43
2022/08/06 04:22:45;;;;;;;1.90;1.10;;;14.00;98.60;;;;;;5108491;28;20110;-44
2022/08/06 04:25:11;;;;;;;2.53;1.30;;;14.00;98.60;;;;;;5109532;28;20530;-43
2022/08/06 04:27:39;;;;;;;2.83;1.30;;;13.90;98.70;;;;;;5109006;28;20055;-43
2022/08/06 04:30:06;;;;;;;2.50;1.17;;;13.90;98.80;;;;;;5109000;28;20367;-43
2022/08/06 04:32:32;;;;;;;4.32;1.90;;;13.80;98.90;;;;;;5109081;28;20038;-44
2022/08/06 04:35:05;;;;;;;4.28;1.40;;;13.90;99.00;;;;;;5109860;28;20030;-46
2022/08/06 04:37:31;;;;;;;;;;;13.90;99.00;;;;;;5108777;28;20031;-43
2022/08/06 04:39:57;;;;;;;5.38;1.42;;;13.90;99.00;;;;;;5109517;28;20593;-43
2022/08/06 04:42:24;;;;;;;3.75;1.20;;;13.90;98.90;;;;;;5109206;28;20023;-44
2022/08/06 04:44:50;;;;;;;2.15;1.20;;;13.90;99.00;;;;;;5107319;28;20102;-43
2022/08/06 04:47:16;;;;;;;1.60;1.15;;;13.90;99.00;;;;;;5109531;28;20106;-42
2022/08/06 04:49:42;;;;;;;1.02;0.90;;;14.00;99.00;;;;;;5108755;28;20139;-43
2022/08/06 04:52:07;;;;;;;3.10;1.15;;;13.90;99.00;;;;;;5108673;28;20032;-42
2022/08/06 04:54:33;;;;;;;2.83;1.10;;;13.90;99.00;;;;;;5108589;28;20023;-42
2022/08/06 04:56:58;;;;;;;2.47;1.30;;;13.90;99.00;;;;;;5108944;28;20123;-44
2022/08/06 04:59:24;;;;;;;3.63;1.23;;;13.90;99.10;;;;;;5108262;28;20015;-43
2022/08/06 05:01:50;;;;;;;2.90;1.00;;;13.90;99.10;;;;;;5108767;28;20019;-42
2022/08/06 05:04:15;;;;;;;1.85;1.10;;;13.90;99.20;;;;;;5109039;28;20046;-44
2022/08/06 05:07:01;;;;;;;2.85;1.10;;;13.90;99.20;;;;;;5108291;28;20016;-43
2022/08/06 05:09:27;;;;;;;3.55;1.20;;;13.90;99.30;;;;;;5108635;28;20471;-44
2022/08/06 05:12:18;;;;;;;2.10;1.20;;;13.90;99.30;;;;;;5108786;28;20032;-43
2022/08/06 05:14:53;;;;;;;3.28;1.20;;;13.80;99.40;;;;;;5108152;28;20062;-44
2022/08/06 05:17:21;;;;;;;3.13;1.05;;;13.80;99.40;;;;;;5108175;28;20027;-43
2022/08/06 05:19:53;;;;;;;2.17;1.20;;;13.80;99.40;;;;;;5107917;28;20463;-44
2022/08/06 05:22:20;;;;;;;2.00;1.10;;;13.80;99.50;;;;;;5108659;28;20122;-44
2022/08/06 05:24:47;;;;;;;2.53;1.05;;;13.70;99.50;;;;;;5107579;28;20479;-43
2022/08/06 05:27:13;;;;;;;3.47;1.02;;;13.70;99.70;;;;;;5107910;28;20056;-43
2022/08/06 05:29:40;;;;;;;2.17;1.10;;;13.70;99.80;;;;;;5108046;28;20023;-43
2022/08/06 05:32:06;;;;;;;1.45;1.10;;;13.70;99.80;;;;;;5108258;28;20108;-43
2022/08/06 05:34:32;;;;;;;1.52;1.05;;;13.70;99.80;;;;;;5107763;28;20016;-43
2022/08/06 05:36:57;;;;;;;1.67;1.00;;;13.80;99.80;;;;;;5107929;28;20051;-43
2022/08/06 05:39:23;;;;;;;2.85;1.48;;;13.80;99.80;;;;;;5108177;28;20488;-44
2022/08/06 05:41:49;;;;;;;2.65;1.20;;;13.90;99.80;;;;;;5107936;28;20027;-43
2022/08/06 05:44:15;;;;;;;4.70;1.00;;;13.90;99.70;;;;;;5108573;28;20110;-43
2022/08/06 05:46:52;;;;;;;1.83;0.90;;;14.00;99.70;;;;;;5108425;28;20104;-44
2022/08/06 05:49:39;;;;;;;3.17;1.23;;;14.00;99.70;;;;;;5108364;28;20582;-44
2022/08/06 05:52:17;;;;;;;2.88;1.38;;;14.00;99.70;;;;;;5106798;28;20077;-44
2022/08/06 05:55:11;;;;;;;3.20;1.20;;;14.10;99.70;;;;;;5107184;28;20138;-43
2022/08/06 05:57:45;;;;;;;4.28;1.52;;;14.20;99.80;;;;;;5098012;28;20032;-43
2022/08/06 06:00:17;;;;;;;3.30;1.40;;;14.20;99.80;;;;;;5107559;28;20070;-45
2022/08/06 06:02:45;;;;;;;3.30;1.50;;;14.20;99.90;;;;;;5106876;28;20032;-44
2022/08/06 06:05:12;;;;;;;4.35;1.50;;;14.20;99.90;;;;;;5108093;28;20043;-34
2022/08/06 06:07:37;;;;;;;3.92;1.40;;;14.30;99.90;;;;;;5107735;28;20027;-34
2022/08/06 06:10:05;;;;;;;1.63;0.90;;;14.30;99.90;;;;;;5107207;28;20020;-35
2022/08/06 06:12:32;;;;;;;1.58;0.90;;;14.30;99.90;;;;;;5107138;28;20083;-34
2022/08/06 06:14:58;;;;;;;2.45;0.95;;;14.40;99.90;;;;;;5107537;28;20030;-33
2022/08/06 06:17:38;;;;;;;1.45;0.65;;;14.40;99.90;;;;;;5107224;28;20047;-34
2022/08/06 06:20:11;;;;;;;2.17;0.60;;;14.50;99.90;;;;;;5087188;28;20028;-35
2022/08/06 06:23:11;;;;;;;1.75;0.82;;;14.60;99.90;;;;;;5102667;28;20035;-34
2022/08/06 06:26:03;;;;;;;1.85;0.60;;;14.80;99.80;;;;;;5087152;28;20113;-34
2022/08/06 06:28:52;;;;;;;2.05;0.85;;;15.00;99.60;;;;;;5103342;28;20564;-34
2022/08/06 06:31:38;;;;;;;2.88;1.60;;;15.10;99.60;;;;;;5106594;28;20039;-34
2022/08/06 06:34:08;;;;;;;2.17;0.73;;;15.30;99.40;;;;;;5095341;28;20581;-35
2022/08/06 06:36:59;;;;;;;3.13;1.10;;;15.40;99.30;;;;;;5105791;28;20453;-34
2022/08/06 06:39:44;;;;;;;2.50;0.90;;;15.50;99.20;;;;;;5097206;28;20023;-34
2022/08/06 06:42:17;;;;;;;2.05;0.90;;;15.60;99.00;;;;;;5106816;28;20099;-33
2022/08/06 06:45:01;;;;;;;2.33;0.70;;;15.70;98.90;;;;;;5104433;28;20027;-36
2022/08/06 06:47:50;;;;;;;3.03;0.95;;;15.70;98.80;;;;;;5105940;28;20039;-35
2022/08/06 06:50:23;;;;;;;2.05;0.70;;;15.80;99.00;;;;;;5106730;28;20020;-34
2022/08/06 06:52:51;;;;;;;3.10;0.70;;;15.90;98.60;;;;;;5106129;28;20191;-34
2022/08/06 06:55:29;;;;;;;2.30;0.73;;;15.90;98.50;;;;;;5106275;28;20128;-35
2022/08/06 06:58:03;;;;;;;1.90;0.60;;;16.00;98.50;;;;;;5105053;28;20130;-34
2022/08/06 07:00:30;;;;;;;2.20;0.77;;;16.00;98.40;;;;;;5105267;28;20390;-34
2022/08/06 07:02:56;;;;;;;3.13;0.60;;;16.10;98.40;;;;;;5105416;28;20027;-34
2022/08/06 07:05:23;;;;;;;2.50;0.73;;;16.20;98.30;;;;;;5106152;28;20093;-36
2022/08/06 07:07:51;;;;;;;1.45;0.70;;;16.20;98.30;;;;;;5105820;28;20015;-35
2022/08/06 07:10:18;;;;;;;2.50;0.70;;;16.30;98.20;;;;;;5094420;28;20020;-35
2022/08/06 07:12:45;;;;;;;1.92;0.65;;;16.30;98.20;;;;;;5104478;28;20266;-34
2022/08/06 07:15:14;;;;;;;2.83;0.70;;;16.40;98.20;;;;;;5105510;28;20028;-33
2022/08/06 07:17:41;;;;;;;2.95;0.95;;;16.40;98.20;;;;;;5105047;28;20038;-34
2022/08/06 07:20:09;;;;;;;2.60;0.70;;;16.50;98.10;;;;;;5104764;28;20020;-35
2022/08/06 07:22:37;;;;;;;2.45;0.80;;;16.60;98.00;;;;;;5105461;28;20031;-35
2022/08/06 07:25:06;;;;;;;0.98;0.40;;;16.70;98.00;;;;;;5104752;28;20035;-35
2022/08/06 07:27:39;;;;;;;1.77;0.80;;;16.70;97.80;;;;;;5104355;28;20062;-36
2022/08/06 07:30:06;;;;;;;1.20;0.60;;;16.70;97.70;;;;;;5104554;28;20026;-35
2022/08/06 07:32:35;;;;;;;2.72;0.65;;;16.80;97.60;;;;;;5104804;28;20230;-35
2022/08/06 07:35:04;;;;;;;1.67;0.40;;;16.80;97.40;;;;;;5104605;28;20700;-34
2022/08/06 07:37:31;;;;;;;1.05;0.52;;;16.90;97.40;;;;;;5084068;28;20540;-34
2022/08/06 07:39:59;;;;;;;0.68;0.35;;;16.90;97.40;;;;;;5097512;28;20024;-36
2022/08/06 07:42:28;;;;;;;1.60;0.50;;;17.00;97.30;;;;;;5105834;28;20046;-34
2022/08/06 07:44:57;;;;;;;1.63;0.30;;;17.00;97.20;;;;;;5105527;28;20023;-35
2022/08/06 07:47:40;;;;;;;2.60;0.60;;;17.00;97.10;;;;;;5103928;28;20024;-34
2022/08/06 07:50:09;;;;;;;2.65;0.68;;;17.10;96.70;;;;;;5105533;28;20138;-35
2022/08/06 07:52:36;;;;;;;1.90;0.70;;;17.10;96.50;;;;;;5105195;28;20073;-34
2022/08/06 07:55:01;;;;;;;1.75;0.47;;;17.10;96.60;;;;;;5105284;28;20130;-33
2022/08/06 07:57:28;;;;;;;1.38;0.40;;;17.20;96.50;;;;;;5105584;28;20148;-34
2022/08/06 08:02:36;;;;;;;0.68;0.40;;;17.20;95.90;;;;;;5062113;28;20500;-34
2022/08/06 08:07:47;;;;;;;3.25;0.40;;;17.30;95.80;;;;;;5062168;28;20044;-35
2022/08/06 08:10:13;;;;;;;1.83;0.60;;;17.30;95.70;;;;;;5062712;28;20486;-33
2022/08/06 08:12:39;;;;;;;0.95;0.50;;;17.40;95.00;;;;;;5062490;28;20111;-35
2022/08/06 08:15:06;;;;;;;2.20;0.60;;;17.40;95.20;;;;;;5062100;28;20052;-34
2022/08/06 08:17:32;;;;;;;0.70;0.40;;;17.40;95.20;;;;;;5051754;28;20093;-35
2022/08/06 08:20:05;;;;;;;1.55;0.40;;;17.50;95.20;;;;;;5062738;28;20554;-33
2022/08/06 08:22:31;;;;;;;3.33;0.50;;;17.50;94.90;;;;;;5061511;28;20040;-35
2022/08/06 08:24:56;;;;;;;1.20;0.50;;;17.50;94.90;;;;;;5062372;28;20032;-35
2022/08/06 08:27:22;;;;;;;2.10;0.70;;;17.60;94.70;;;;;;5062632;28;20125;-34
2022/08/06 08:29:47;;;;;;;1.13;0.50;;;17.60;94.70;;;;;;5061182;28;20029;-34
2022/08/06 08:32:13;;;;;;;2.40;0.60;;;17.70;94.40;;;;;;5061612;28;20522;-34
2022/08/06 08:34:39;;;;;;;0.60;0.60;;;17.80;94.10;;;;;;5062248;28;20357;-34
2022/08/06 08:37:04;;;;;;;0.93;0.60;;;17.80;94.00;;;;;;5061285;28;20510;-34
2022/08/06 08:39:30;;;;;;;1.40;0.60;;;17.80;93.40;;;;;;5062047;28;20020;-34
2022/08/06 08:42:06;;;;;;;1.00;0.50;;;17.90;93.20;;;;;;5061154;28;20127;-34
2022/08/06 08:44:33;;;;;;;2.72;0.70;;;17.90;93.20;;;;;;5060979;28;20021;-35
2022/08/06 08:47:00;;;;;;;3.00;0.60;;;17.90;93.30;;;;;;5062005;28;20096;-34
2022/08/06 08:49:45;;;;;;;0.80;0.47;;;18.00;93.10;;;;;;5061623;28;20028;-34
2022/08/06 08:52:20;;;;;;;1.55;0.57;;;18.10;93.10;;;;;;5060879;28;20783;-34
2022/08/06 08:54:50;;;;;;;2.10;0.65;;;18.20;93.00;;;;;;5060826;28;20020;-35
2022/08/06 08:57:16;;;;;;;1.55;0.50;;;18.30;92.20;;;;;;5061385;28;20495;-33
2022/08/06 08:59:43;;;;;;;1.90;0.50;;;18.40;92.00;;;;;;5061868;28;20021;-35
2022/08/06 09:02:13;;;;;;;0.80;0.45;;;18.40;91.70;;;;;;5061009;28;20115;-33
2022/08/06 09:04:40;;;;;;;0.60;0.30;;;18.50;91.40;;;;;;5061059;28;20028;-35
2022/08/06 09:07:08;;;;;;;1.38;0.60;;;18.60;91.40;;;;;;5061417;28;20206;-35
2022/08/06 09:09:34;;;;;;;1.40;0.50;;;18.70;91.40;;;;;;5060971;28;20036;-34
2022/08/06 09:12:00;;;;;;;1.13;0.50;;;18.70;91.20;;;;;;5058138;28;20032;-33
2022/08/06 09:14:26;;;;;;;1.00;0.50;;;18.80;90.40;;;;;;5047716;28;20507;-34
2022/08/06 09:16:51;;;;;;;1.73;0.60;;;18.80;90.40;;;;;;5047574;28;20082;-33
2022/08/06 09:19:17;;;;;;;1.35;0.68;;;18.80;90.60;;;;;;5047889;28;20025;-34
2022/08/06 09:21:43;;;;;;;1.70;0.60;;;18.80;90.70;;;;;;5047308;28;20041;-33
2022/08/06 09:24:09;;;;;;;2.70;0.50;;;18.80;90.60;;;;;;5046729;28;20044;-33
2022/08/06 09:26:35;;;;;;;0.60;0.50;;;18.80;90.70;;;;;;5047689;28;20065;-34
2022/08/06 09:29:00;;;;;;;1.40;0.50;;;18.90;90.50;;;;;;5047078;28;20024;-34
2022/08/06 09:31:26;;;;;;;0.50;0.30;;;18.90;90.30;;;;;;5047731;28;20033;-34
2022/08/06 09:34:06;;;;;;;2.28;0.52;;;18.90;89.70;;;;;;5047276;28;20056;-35
2022/08/06 09:36:43;;;;;;;0.52;0.35;;;19.00;89.00;;;;;;5027517;28;20053;-33
2022/08/06 09:39:08;;;;;;;0.90;0.35;;;19.00;88.10;;;;;;5043322;28;20071;-34
2022/08/06 09:41:49;;;;;;;0.75;0.30;;;19.10;86.60;;;;;;5045249;28;20080;-34
2022/08/06 09:44:15;;;;;;;0.40;0.30;;;19.10;86.10;;;;;;5047178;28;20024;-33
2022/08/06 09:46:50;;;;;;;0.73;0.30;;;19.20;86.10;;;;;;5047069;28;20139;-34
2022/08/06 09:49:17;;;;;;;0.25;0.25;;;19.20;84.80;;;;;;5047366;28;20371;-34
2022/08/06 09:51:43;;;;;;;0.98;0.30;;;19.30;84.40;;;;;;5046943;28;20423;-34
2022/08/06 09:54:12;;;;;;;0.65;0.40;;;19.40;84.30;;;;;;5046523;28;20793;-34
2022/08/06 09:56:38;;;;;;;1.00;0.38;;;19.50;84.10;;;;;;5047957;28;20115;-34
2022/08/06 09:59:06;;;;;;;1.42;0.38;;;19.50;84.00;;;;;;5047030;28;20040;-35
2022/08/06 10:01:41;;;;;;;0.63;0.35;;;19.60;83.30;;;;;;5047229;28;20057;-33
2022/08/06 10:04:11;;;;;;;1.23;0.50;;;19.80;83.30;;;;;;5047615;28;20059;-34
2022/08/06 10:06:57;;;;;;;0.93;0.40;;;19.90;82.50;;;;;;5046853;28;20040;-34
2022/08/06 10:09:23;;;;;;;1.08;0.60;;;20.00;82.00;;;;;;5047070;28;20385;-34
2022/08/06 10:11:49;;;;;;;2.75;0.80;;;20.10;82.20;;;;;;5047516;28;20025;-34
2022/08/06 10:14:27;;;;;;;0.40;0.40;;;20.30;81.70;;;;;;5046557;28;20036;-34
2022/08/06 10:17:07;;;;;;;0.77;0.40;;;20.30;81.40;;;;;;5047070;28;20029;-34
2022/08/06 10:19:34;;;;;;;1.63;0.45;;;20.20;81.20;;;;;;5046695;28;20396;-35
2022/08/06 10:22:07;;;;;;;3.60;0.50;;;20.20;79.80;;;;;;5046211;28;20457;-34
2022/08/06 10:24:50;;;;;;;1.92;0.40;;;20.20;80.70;;;;;;5045658;28;20036;-34
2022/08/06 10:27:22;;;;;;;;;;;20.20;80.60;;;;;;5048458;28;20025;-35
2022/08/06 10:29:53;;;;;;;0.50;0.30;;;20.30;80.40;;;;;;5046314;28;19908;-35
2022/08/06 10:32:26;;;;;;;1.05;0.47;;;20.30;79.80;;;;;;5047508;28;20033;-34
2022/08/06 10:34:52;;;;;;;;;;;20.30;79.90;;;;;;5047656;28;20074;-34
2022/08/06 10:37:19;;;;;;;1.25;0.40;;;20.40;79.70;;;;;;5046803;28;20249;-35
2022/08/06 10:39:47;;;;;;;0.52;0.30;;;20.40;79.70;;;;;;5046073;28;20534;-34
2022/08/06 10:42:14;;;;;;;0.85;0.30;;;20.50;79.50;;;;;;5047020;28;20107;-35
2022/08/06 10:44:40;;;;;;;0.45;0.45;;;20.50;79.90;;;;;;5045741;28;20063;-35
2022/08/06 10:47:06;;;;;;;0.95;0.45;;;20.70;79.80;;;;;;5046197;28;20028;-35
2022/08/06 10:49:33;;;;;;;0.60;0.40;;;20.80;79.30;;;;;;5046398;28;20035;-34
2022/08/06 10:51:59;;;;;;;1.58;0.70;;;20.80;79.20;;;;;;5046499;28;20087;-34
2022/08/06 10:54:25;;;;;;;1.40;0.50;;;20.80;79.00;;;;;;5046235;28;20116;-35
2022/08/06 10:56:51;;;;;;;0.88;0.50;;;20.70;78.60;;;;;;5045941;28;20122;-35
2022/08/06 10:59:17;;;;;;;1.38;0.60;;;20.70;78.90;;;;;;5046584;28;20068;-34
2022/08/06 11:02:09;;;;;;;2.05;0.70;;;20.60;78.30;;;;;;5045728;28;20045;-34
2022/08/06 11:04:46;;;;;;;0.70;0.47;;;20.50;79.00;;;;;;5025809;28;20022;-35
2022/08/06 11:07:26;;;;;;;1.05;0.50;;;20.40;79.10;;;;;;5042735;28;20022;-35
2022/08/06 11:10:15;;;;;;;1.27;0.30;;;20.40;79.40;;;;;;5046137;28;20025;-35
2022/08/06 11:12:52;;;;;;;0.40;0.32;;;20.40;79.40;;;;;;5045131;28;20025;-34
2022/08/06 11:15:19;;;;;;;0.60;0.30;;;20.40;79.70;;;;;;5046423;28;20059;-34
2022/08/06 11:18:02;;;;;;;0.65;0.30;;;20.50;79.00;;;;;;5044812;28;20021;-34
2022/08/06 11:20:35;;;;;;;1.15;0.35;;;20.60;78.90;;;;;;5045573;28;20036;-34
2022/08/06 11:23:20;;;;;;;0.85;0.50;;;20.80;78.80;;;;;;5045723;28;20313;-34
2022/08/06 11:25:53;;;;;;;0.80;0.30;;;21.00;78.70;;;;;;5045011;28;20115;-34
2022/08/06 11:28:33;;;;;;;0.90;0.40;;;21.30;78.40;;;;;;5044706;28;20496;-34
2022/08/06 11:31:01;;;;;;;0.63;0.35;;;21.40;78.00;;;;;;5045760;28;20087;-35
2022/08/06 11:33:33;;;;;;;0.43;0.20;;;21.60;77.90;;;;;;5045223;28;20032;-34
2022/08/06 11:36:03;;;;;;;0.50;0.38;;;21.80;77.70;;;;;;5045176;28;20344;-36
2022/08/06 11:38:47;;;;;;;2.17;0.40;;;21.90;76.90;;;;;;5044899;28;20072;-34
2022/08/06 11:41:18;;;;;;;1.27;0.70;;;21.90;76.40;;;;;;5045496;28;20025;-35
2022/08/06 11:44:04;;;;;;;0.68;0.40;;;21.90;75.20;;;;;;5044642;28;20025;-34
2022/08/06 11:46:38;;;;;;;1.73;0.55;;;21.80;74.90;;;;;;5044918;28;20035;-33
2022/08/06 11:49:03;;;;;;;0.95;0.50;;;21.70;74.30;;;;;;5044817;28;20024;-35
2022/08/06 11:51:52;;;;;;;0.45;0.40;;;21.60;74.70;;;;;;5045663;28;20182;-34
2022/08/06 11:54:34;;;;;;;0.85;0.47;;;21.60;74.90;;;;;;5045005;28;20055;-34
2022/08/06 11:57:06;;;;;;;0.95;0.40;;;21.60;74.90;;;;;;5044753;28;20028;-34
2022/08/06 11:59:44;;;;;;;1.15;0.50;;;21.70;74.90;;;;;;5041892;28;20029;-35
2022/08/06 12:02:13;;;;;;;0.38;0.30;;;21.70;74.60;;;;;;5044860;28;20088;-34
2022/08/06 12:04:42;;;;;;;0.52;0.40;;;21.70;74.30;;;;;;5044826;28;20025;-35
2022/08/06 12:07:25;;;;;;;0.63;0.32;;;21.70;74.40;;;;;;5044427;28;20381;-34
2022/08/06 12:10:05;;;;;;;0.40;0.30;;;21.60;74.30;;;;;;5038823;28;20044;-35
2022/08/06 12:12:37;;;;;;;0.85;0.38;;;21.70;74.30;;;;;;5045019;28;20029;-35
2022/08/06 12:15:13;;;;;;;0.88;0.40;;;21.70;74.20;;;;;;5041287;28;20025;-35
2022/08/06 12:17:41;;;;;;;0.85;0.40;;;21.80;74.20;;;;;;5044846;28;20029;-34
2022/08/06 12:20:08;;;;;;;1.02;0.43;;;21.80;74.10;;;;;;5044681;28;20029;-34
2022/08/06 12:22:35;;;;;;;0.35;0.35;;;21.90;73.90;;;;;;5044668;28;20036;-35
2022/08/06 12:25:05;;;;;;;0.50;0.30;;;22.00;73.50;;;;;;5044583;28;20021;-35
2022/08/06 12:27:35;;;;;;;0.90;0.52;;;22.00;73.10;;;;;;5045105;28;20029;-34
2022/08/06 12:30:03;;;;;;;1.02;0.30;;;22.00;73.00;;;;;;5044674;28;20028;-35
2022/08/06 12:32:34;;;;;;;1.30;0.60;;;22.00;73.20;;;;;;5045101;28;20029;-35
2022/08/06 12:35:03;;;;;;;0.60;0.60;;;21.90;73.20;;;;;;5044699;28;20033;-36
2022/08/06 12:37:47;;;;;;;1.33;0.50;;;21.80;73.20;;;;;;5045785;28;20139;-35
2022/08/06 12:40:28;;;;;;;0.55;0.40;;;21.70;73.50;;;;;;5045402;28;20029;-35
2022/08/06 12:43:00;;;;;;;0.70;0.30;;;21.70;73.80;;;;;;5023269;28;20091;-34
2022/08/06 12:45:27;;;;;;;0.65;0.40;;;21.60;74.10;;;;;;5040414;28;20472;-35
2022/08/06 12:48:02;;;;;;;0.63;0.63;;;21.60;73.90;;;;;;5045964;28;20036;-35
2022/08/06 12:50:30;;;;;;;0.60;0.40;;;21.60;73.90;;;;;;5047530;28;20102;-33
2022/08/06 12:53:13;;;;;;;1.10;0.50;;;21.60;73.40;;;;;;5048048;28;20069;-34
2022/08/06 12:55:45;;;;;;;0.30;0.30;;;21.70;72.90;;;;;;5048058;28;20376;-34
2022/08/06 12:58:12;;;;;;;1.02;0.60;;;21.80;72.90;;;;;;5047767;28;20084;-35
2022/08/06 13:00:42;;;;;;;1.15;0.40;;;21.80;72.70;;;;;;5047143;28;20033;-34
2022/08/06 13:03:09;;;;;;;1.38;0.40;;;21.90;72.60;;;;;;5047935;28;20033;-34
2022/08/06 13:05:36;;;;;;;0.73;0.45;;;21.90;72.60;;;;;;5048498;28;20013;-36
2022/08/06 13:08:03;;;;;;;2.15;0.40;;;22.00;72.50;;;;;;5047469;28;20036;-35
2022/08/06 13:10:29;;;;;;;0.57;0.40;;;22.10;72.40;;;;;;5046688;28;20072;-34